createdAt,value
2022-09-15T00:01:17.637Z,99.90
2022-09-15T00:03:46.265Z,99.90
2022-09-15T00:06:14.751Z,99.90
2022-09-15T00:11:18.285Z,99.90
2022-09-15T00:21:14.529Z,99.90
2022-09-15T00:26:14.155Z,99.90
2022-09-15T00:28:42.595Z,99.90
2022-09-15T00:31:14.066Z,99.90
2022-09-15T00:36:13.003Z,99.90
2022-09-15T00:38:41.787Z,99.90
2022-09-15T00:41:12.646Z,99.90
2022-09-15T00:43:48.902Z,99.90
2022-09-15T00:46:19.097Z,99.90
2022-09-15T00:48:52.428Z,99.90
2022-09-15T00:51:25.783Z,99.90
2022-09-15T00:53:54.584Z,99.90
2022-09-15T00:56:24.385Z,99.90
2022-09-15T00:58:56.191Z,99.90
2022-09-15T01:01:26.375Z,99.90
2022-09-15T01:06:30.683Z,99.90
2022-09-15T01:09:04.184Z,99.90
2022-09-15T01:14:03.004Z,99.90
2022-09-15T01:16:41.283Z,99.90
2022-09-15T01:19:46.276Z,99.90
2022-09-15T01:22:33.672Z,99.90
2022-09-15T01:25:09.179Z,99.90
2022-09-15T01:28:30.363Z,99.90
2022-09-15T01:31:02.658Z,99.90
2022-09-15T01:33:36.398Z,99.90
2022-09-15T01:36:12.394Z,99.90
2022-09-15T01:38:51.602Z,99.90
2022-09-15T01:41:25.322Z,99.90
2022-09-15T01:44:00.821Z,99.90
2022-09-15T01:46:33.583Z,99.90
2022-09-15T01:49:03.173Z,99.90
2022-09-15T01:51:34.383Z,99.90
2022-09-15T01:54:05.227Z,99.90
2022-09-15T01:59:01.728Z,99.90
2022-09-15T02:01:43.202Z,99.90
2022-09-15T02:04:16.078Z,99.90
2022-09-15T02:06:53.303Z,99.90
2022-09-15T02:09:26.258Z,99.90
2022-09-15T02:12:02.071Z,99.90
2022-09-15T02:14:43.159Z,99.90
2022-09-15T02:17:18.932Z,99.90
2022-09-15T02:19:51.099Z,99.90
2022-09-15T02:22:23.767Z,99.90
2022-09-15T02:24:58.070Z,99.90
2022-09-15T02:27:29.730Z,99.90
2022-09-15T02:30:03.247Z,99.90
2022-09-15T02:32:34.074Z,99.90
2022-09-15T02:35:04.791Z,99.90
2022-09-15T02:37:33.033Z,99.90
2022-09-15T02:40:02.458Z,99.90
2022-09-15T02:42:33.066Z,99.90
2022-09-15T02:45:02.337Z,99.90
2022-09-15T02:50:01.487Z,99.90
2022-09-15T03:05:11.365Z,99.90
2022-09-15T03:07:39.665Z,99.90
2022-09-15T03:10:09.894Z,99.90
2022-09-15T03:12:41.512Z,99.90
2022-09-15T03:15:11.767Z,99.90
2022-09-15T03:17:41.609Z,99.90
2022-09-15T03:20:12.772Z,99.90
2022-09-15T03:25:10.553Z,99.90
2022-09-15T03:27:38.807Z,99.90
2022-09-15T03:30:08.299Z,99.90
2022-09-15T03:35:08.652Z,99.90
2022-09-15T03:37:38.379Z,99.90
2022-09-15T03:40:07.782Z,99.90
2022-09-15T03:52:32.350Z,99.90
2022-09-15T03:55:01.734Z,99.90
2022-09-15T04:02:26.976Z,99.90
2022-09-15T04:04:55.060Z,99.90
2022-09-15T04:07:23.107Z,99.90
2022-09-15T04:12:21.002Z,99.90
2022-09-15T04:24:48.058Z,99.90
2022-09-15T04:29:46.220Z,99.90
2022-09-15T04:34:42.532Z,99.90
2022-09-15T04:37:12.063Z,99.90
2022-09-15T04:39:40.086Z,99.90
2022-09-15T04:42:08.219Z,99.90
2022-09-15T04:44:36.346Z,99.90
2022-09-15T04:47:06.300Z,99.90
2022-09-15T04:54:37.046Z,99.90
2022-09-15T04:59:33.827Z,99.90
2022-09-15T05:04:31.751Z,99.90
2022-09-15T05:09:29.578Z,99.90
2022-09-15T05:11:57.772Z,99.90
2022-09-15T05:21:52.843Z,99.90
2022-09-15T05:31:45.936Z,99.90
2022-09-15T05:36:42.359Z,99.90
2022-09-15T05:39:11.643Z,99.90
2022-09-15T05:46:36.557Z,99.90
2022-09-15T05:56:31.252Z,99.90
2022-09-15T06:01:29.957Z,99.90
2022-09-15T06:03:58.940Z,99.90
2022-09-15T06:06:28.108Z,99.90
2022-09-15T06:08:59.126Z,99.90
2022-09-15T06:11:30.853Z,99.90
2022-09-15T06:14:01.029Z,99.90
2022-09-15T06:16:32.293Z,99.90
2022-09-15T06:19:01.027Z,99.90
2022-09-15T06:21:30.427Z,99.90
2022-09-15T06:23:59.982Z,99.90
2022-09-15T06:26:30.149Z,99.90
2022-09-15T06:29:00.425Z,99.90
2022-09-15T06:31:31.598Z,99.90
2022-09-15T06:34:00.662Z,99.90
2022-09-15T06:36:30.073Z,99.90
2022-09-15T06:38:58.607Z,99.90
2022-09-15T06:41:33.033Z,99.90
2022-09-15T06:44:16.688Z,99.90
2022-09-15T06:49:14.067Z,99.90
2022-09-15T06:59:07.379Z,99.90
2022-09-15T07:01:37.186Z,99.90
2022-09-15T07:04:08.481Z,99.90
2022-09-15T07:06:37.898Z,99.90
2022-09-15T07:09:06.554Z,99.90
2022-09-15T07:11:34.673Z,99.90
2022-09-15T07:16:31.349Z,99.90
2022-09-15T07:19:03.413Z,99.90
2022-09-15T07:26:33.894Z,99.90
2022-09-15T07:29:04.845Z,99.90
2022-09-15T07:31:35.663Z,99.90
2022-09-15T07:34:06.380Z,99.90
2022-09-15T07:36:35.189Z,99.90
2022-09-15T07:39:04.820Z,99.90
2022-09-15T07:41:33.573Z,99.90
2022-09-15T07:44:01.968Z,99.90
2022-09-15T07:46:32.976Z,99.90
2022-09-15T07:49:02.984Z,99.90
2022-09-15T07:51:32.676Z,99.90
2022-09-15T07:56:29.040Z,99.90
2022-09-15T07:58:58.138Z,99.90
2022-09-15T08:01:26.207Z,99.90
2022-09-15T08:03:54.395Z,99.90
2022-09-15T08:06:24.625Z,99.90
2022-09-15T08:09:00.058Z,99.90
2022-09-15T08:13:57.358Z,99.90
2022-09-15T08:16:26.260Z,99.90
2022-09-15T08:18:55.436Z,99.90
2022-09-15T08:21:23.943Z,99.90
2022-09-15T08:23:55.957Z,99.90
2022-09-15T08:26:25.397Z,99.90
2022-09-15T08:31:24.144Z,99.90
2022-09-15T08:33:54.380Z,99.90
2022-09-15T08:36:22.797Z,99.90
2022-09-15T08:38:50.810Z,99.90
2022-09-15T08:41:23.991Z,99.90
2022-09-15T08:44:00.145Z,99.90
2022-09-15T08:46:34.863Z,99.90
2022-09-15T08:49:09.439Z,99.90
2022-09-15T08:51:44.548Z,99.90
2022-09-15T08:54:17.549Z,99.90
2022-09-15T08:56:47.321Z,99.90
2022-09-15T08:59:17.607Z,99.90
2022-09-15T09:02:08.474Z,99.90
2022-09-15T09:05:17.492Z,99.90
2022-09-15T09:08:04.086Z,99.90
2022-09-15T09:10:42.659Z,99.90
2022-09-15T09:13:21.322Z,99.90
2022-09-15T09:16:04.525Z,99.90
2022-09-15T09:19:20.946Z,99.90
2022-09-15T09:21:55.336Z,99.90
2022-09-15T09:24:33.431Z,99.90
2022-09-15T09:27:01.553Z,99.90
2022-09-15T09:29:35.756Z,99.90
2022-09-15T09:32:04.696Z,99.90
2022-09-15T09:34:38.851Z,99.90
2022-09-15T09:37:12.725Z,99.90
2022-09-15T09:39:41.281Z,99.90
2022-09-15T09:42:15.328Z,99.90
2022-09-15T09:44:45.249Z,99.90
2022-09-15T09:49:46.848Z,99.90
2022-09-15T09:52:32.505Z,99.90
2022-09-15T09:55:02.148Z,99.90
2022-09-15T09:57:31.787Z,99.90
2022-09-15T10:00:01.238Z,99.90
2022-09-15T10:05:18.462Z,99.90
2022-09-15T10:07:46.515Z,99.90
2022-09-15T10:10:22.685Z,99.90
2022-09-15T10:12:55.660Z,99.90
2022-09-15T10:15:27.288Z,99.90
2022-09-15T10:17:56.366Z,99.90
2022-09-15T10:20:32.303Z,99.90
2022-09-15T10:23:05.134Z,99.90
2022-09-15T10:25:57.620Z,99.90
2022-09-15T10:28:25.987Z,99.90
2022-09-15T10:31:05.394Z,99.90
2022-09-15T10:33:35.896Z,99.90
2022-09-15T10:36:12.956Z,99.90
2022-09-15T10:38:44.688Z,99.90
2022-09-15T10:41:24.237Z,99.90
2022-09-15T10:44:09.139Z,99.90
2022-09-15T10:46:49.792Z,98.70
2022-09-15T10:49:33.406Z,98.70
2022-09-15T10:52:11.260Z,95.70
2022-09-15T10:54:59.727Z,93.80
2022-09-15T10:57:39.577Z,95.80
2022-09-15T11:00:12.492Z,94.30
2022-09-15T11:03:11.817Z,92.40
2022-09-15T11:05:52.024Z,95.60
2022-09-15T11:08:38.595Z,92.10
2022-09-15T11:11:14.644Z,91.80
2022-09-15T11:13:56.532Z,92.20
2022-09-15T11:16:35.740Z,92.20
2022-09-15T11:19:21.448Z,93.90
2022-09-15T11:21:52.943Z,95.70
2022-09-15T11:24:40.658Z,96.50
2022-09-15T11:27:15.888Z,94.20
2022-09-15T11:29:59.502Z,96.20
2022-09-15T11:32:31.993Z,97.30
2022-09-15T11:35:16.823Z,96.10
2022-09-15T11:37:49.691Z,96.20
2022-09-15T11:40:24.894Z,94.70
2022-09-15T11:42:58.363Z,94.70
2022-09-15T11:45:29.777Z,94.10
2022-09-15T11:48:00.897Z,96.60
2022-09-15T11:50:35.265Z,93.80
2022-09-15T11:53:09.357Z,97.00
2022-09-15T11:55:40.431Z,95.90
2022-09-15T11:58:22.432Z,93.70
2022-09-15T12:00:56.202Z,90.80
2022-09-15T12:03:29.771Z,91.70
2022-09-15T12:06:04.598Z,93.40
2022-09-15T12:08:37.489Z,91.60
2022-09-15T12:11:11.454Z,91.80
2022-09-15T12:13:41.362Z,91.60
2022-09-15T12:16:10.969Z,91.30
2022-09-15T12:18:46.792Z,85.20
2022-09-15T12:21:21.220Z,86.10
2022-09-15T12:23:58.179Z,88.60
2022-09-15T12:26:28.857Z,88.60
2022-09-15T12:29:02.232Z,88.80
2022-09-15T12:31:35.608Z,88.30
2022-09-15T12:34:06.102Z,88.80
2022-09-15T12:36:54.228Z,90.60
2022-09-15T12:39:32.371Z,91.60
2022-09-15T12:42:12.048Z,91.30
2022-09-15T12:44:44.587Z,90.60
2022-09-15T12:47:35.076Z,91.90
2022-09-15T12:50:22.850Z,91.70
2022-09-15T12:52:54.537Z,92.50
2022-09-15T12:55:24.718Z,95.50
2022-09-15T12:57:55.559Z,96.30
2022-09-15T13:00:42.497Z,99.90
2022-09-15T13:03:30.017Z,99.90
2022-09-15T13:06:16.185Z,99.90
2022-09-15T13:08:53.909Z,99.90
2022-09-15T13:11:40.251Z,99.90
2022-09-15T13:14:14.925Z,99.90
2022-09-15T13:16:50.824Z,99.90
2022-09-15T13:19:23.215Z,99.90
2022-09-15T13:21:59.585Z,99.90
2022-09-15T13:24:43.243Z,99.90
2022-09-15T13:27:13.056Z,99.90
2022-09-15T13:29:47.179Z,99.90
2022-09-15T13:32:24.406Z,99.90
2022-09-15T13:35:18.102Z,99.90
2022-09-15T13:38:21.821Z,99.90
2022-09-15T13:41:32.850Z,99.90
2022-09-15T13:44:34.764Z,99.90
2022-09-15T13:47:14.376Z,99.90
2022-09-15T13:49:52.556Z,99.90
2022-09-15T13:52:34.043Z,99.90
2022-09-15T13:55:20.843Z,99.90
2022-09-15T14:00:55.126Z,99.90
2022-09-15T14:03:28.150Z,99.90
2022-09-15T14:05:57.387Z,99.90
2022-09-15T14:08:28.147Z,99.90
2022-09-15T14:11:00.078Z,99.90
2022-09-15T14:13:30.928Z,99.90
2022-09-15T14:16:01.137Z,99.90
2022-09-15T14:21:02.287Z,99.90
2022-09-15T14:23:30.659Z,99.90
2022-09-15T14:26:01.198Z,99.90
2022-09-15T14:28:33.190Z,99.90
2022-09-15T14:31:02.900Z,99.90
2022-09-15T14:33:38.106Z,99.90
2022-09-15T14:36:14.831Z,99.90
2022-09-15T14:38:42.923Z,99.90
2022-09-15T14:41:20.080Z,99.50
2022-09-15T14:43:49.391Z,99.90
2022-09-15T14:46:20.791Z,99.90
2022-09-15T14:51:22.792Z,99.90
2022-09-15T14:53:55.759Z,99.90
2022-09-15T14:56:26.037Z,98.10
2022-09-15T14:58:59.070Z,97.20
2022-09-15T15:01:34.223Z,97.80
2022-09-15T15:04:10.183Z,96.40
2022-09-15T15:06:42.712Z,96.60
2022-09-15T15:09:18.197Z,98.70
2022-09-15T15:11:48.215Z,95.90
2022-09-15T15:14:17.860Z,97.60
2022-09-15T15:16:52.455Z,96.10
2022-09-15T15:19:42.516Z,97.40
2022-09-15T15:22:18.298Z,98.40
2022-09-15T15:24:49.940Z,98.80
2022-09-15T15:27:41.610Z,95.40
2022-09-15T15:30:33.082Z,93.40
2022-09-15T15:33:03.310Z,91.40
2022-09-15T15:35:33.087Z,91.60
2022-09-15T15:38:07.297Z,92.60
2022-09-15T15:40:37.897Z,92.40
2022-09-15T15:43:08.433Z,93.80
2022-09-15T15:45:49.968Z,96.00
2022-09-15T15:48:18.056Z,95.40
2022-09-15T15:53:14.376Z,94.80
2022-09-15T15:55:44.048Z,93.70
2022-09-15T15:58:13.413Z,93.80
2022-09-15T16:00:45.299Z,93.40
2022-09-15T16:03:14.429Z,94.40
2022-09-15T16:05:44.741Z,93.40
2022-09-15T16:08:17.143Z,92.20
2022-09-15T16:10:49.420Z,92.50
2022-09-15T16:13:19.048Z,93.80
2022-09-15T16:15:48.617Z,92.40
2022-09-15T16:18:16.733Z,92.90
2022-09-15T16:20:45.201Z,92.60
2022-09-15T16:23:16.139Z,94.10
2022-09-15T16:25:49.764Z,92.40
2022-09-15T16:28:18.170Z,93.60
2022-09-15T16:30:46.738Z,92.70
2022-09-15T16:33:17.712Z,93.10
2022-09-15T16:35:51.255Z,93.40
2022-09-15T16:40:48.514Z,94.90
2022-09-15T16:43:18.006Z,93.40
2022-09-15T16:45:46.401Z,94.60
2022-09-15T16:48:14.792Z,95.30
2022-09-15T16:56:01.004Z,95.10
2022-09-15T17:00:57.947Z,97.10
2022-09-15T17:03:27.313Z,96.00
2022-09-15T17:05:58.854Z,97.50
2022-09-15T17:08:29.411Z,98.90
2022-09-15T17:10:58.250Z,97.30
2022-09-15T17:13:30.171Z,97.60
2022-09-15T17:15:59.556Z,99.00
2022-09-15T17:18:28.170Z,99.90
2022-09-15T17:20:58.564Z,99.90
2022-09-15T17:23:28.028Z,99.90
2022-09-15T17:25:59.019Z,98.70
2022-09-15T17:28:29.056Z,99.90
2022-09-15T17:30:59.236Z,99.90
2022-09-15T17:33:28.329Z,99.90
2022-09-15T17:35:57.731Z,99.20
2022-09-15T17:40:55.304Z,99.90
2022-09-15T17:43:25.500Z,99.90
2022-09-15T17:45:53.891Z,99.90
2022-09-15T17:48:23.214Z,99.90
2022-09-15T17:50:52.321Z,99.90
2022-09-15T17:53:23.509Z,99.90
2022-09-15T17:55:52.123Z,99.90
2022-09-15T17:58:20.208Z,99.90
2022-09-15T18:03:23.827Z,99.90
2022-09-15T18:05:53.448Z,99.90
2022-09-15T18:08:23.223Z,99.90
2022-09-15T18:10:51.547Z,99.90
2022-09-15T18:13:23.495Z,99.90
2022-09-15T18:15:51.851Z,99.90
2022-09-15T18:18:21.883Z,99.90
2022-09-15T18:20:51.187Z,99.90
2022-09-15T18:23:21.840Z,99.90
2022-09-15T18:25:51.727Z,99.90
2022-09-15T18:28:20.390Z,99.90
2022-09-15T18:30:50.168Z,99.90
2022-09-15T18:33:20.447Z,99.90
2022-09-15T18:35:49.856Z,99.90
2022-09-15T18:38:18.745Z,99.90
2022-09-15T18:43:17.181Z,99.90
2022-09-15T18:45:45.483Z,99.90
2022-09-15T18:48:14.028Z,99.90
2022-09-15T18:50:43.031Z,99.90
2022-09-15T18:53:11.175Z,99.90
2022-09-15T18:55:42.008Z,99.90
2022-09-15T18:58:10.327Z,99.90
2022-09-15T19:00:40.606Z,99.90
2022-09-15T19:03:10.113Z,99.90
2022-09-15T19:08:08.304Z,99.90
2022-09-15T19:10:38.259Z,99.90
2022-09-15T19:15:35.183Z,99.90
2022-09-15T19:18:05.019Z,99.90
2022-09-15T19:20:33.014Z,99.90
2022-09-15T19:23:01.011Z,99.90
2022-09-15T19:27:57.307Z,99.90
2022-09-15T19:30:25.428Z,99.90
2022-09-15T19:35:23.077Z,99.90
2022-09-15T19:40:20.678Z,99.90
2022-09-15T19:45:17.577Z,99.90
2022-09-15T19:52:43.560Z,99.90
2022-09-15T19:57:42.059Z,99.90
2022-09-15T20:00:12.845Z,99.90
2022-09-15T20:02:41.127Z,99.90
2022-09-15T20:05:09.880Z,99.90
2022-09-15T20:07:38.240Z,99.90
2022-09-15T20:10:08.232Z,99.90
2022-09-15T20:12:36.211Z,99.90
2022-09-15T20:15:04.717Z,99.90
2022-09-15T20:17:32.890Z,99.90
2022-09-15T20:20:00.921Z,99.90
2022-09-15T20:22:28.892Z,99.90
2022-09-15T20:27:26.747Z,99.90
2022-09-15T20:29:54.716Z,99.90
2022-09-15T20:32:28.018Z,99.90
2022-09-15T20:34:56.808Z,99.90
2022-09-15T20:37:24.843Z,99.90
2022-09-15T20:39:52.896Z,99.90
2022-09-15T20:44:50.715Z,99.90
2022-09-15T20:49:46.970Z,99.90
2022-09-15T20:52:14.986Z,99.90
2022-09-15T20:54:43.148Z,99.90
2022-09-15T20:57:11.774Z,99.90
2022-09-15T21:02:10.366Z,99.90
2022-09-15T21:07:07.420Z,99.90
2022-09-15T21:12:04.091Z,99.90
2022-09-15T21:14:32.094Z,99.90
2022-09-15T21:17:00.114Z,99.90
2022-09-15T21:19:29.448Z,99.90
2022-09-15T21:21:58.572Z,99.90
2022-09-15T21:29:40.928Z,99.90
2022-09-15T21:32:09.180Z,99.90
2022-09-15T21:34:38.614Z,99.90
2022-09-15T21:39:34.958Z,99.90
2022-09-15T21:44:31.339Z,99.90
2022-09-15T21:46:59.559Z,99.90
2022-09-15T21:51:57.283Z,99.90
2022-09-15T22:09:21.502Z,99.90
2022-09-15T22:14:18.015Z,99.90
2022-09-15T22:16:46.110Z,99.90
2022-09-15T22:19:14.189Z,99.90
2022-09-15T22:21:42.532Z,99.90
2022-09-15T22:24:13.046Z,99.90
2022-09-15T22:26:43.559Z,99.90
2022-09-15T22:29:11.996Z,99.90
2022-09-15T22:39:06.935Z,99.90
2022-09-15T22:41:36.908Z,99.90
2022-09-15T22:44:07.461Z,99.90
2022-09-15T23:01:31.600Z,99.90
2022-09-15T23:04:01.060Z,99.90
2022-09-15T23:06:31.657Z,99.90
2022-09-15T23:09:01.270Z,99.90
2022-09-15T23:11:32.260Z,99.90
2022-09-15T23:14:00.441Z,99.90
2022-09-15T23:16:31.443Z,99.90
2022-09-15T23:19:00.269Z,99.90
2022-09-15T23:26:26.739Z,99.90
2022-09-15T23:28:55.201Z,99.90
2022-09-15T23:31:23.586Z,99.90
2022-09-15T23:33:53.009Z,99.90
2022-09-15T23:38:50.615Z,99.90
2022-09-15T23:41:19.956Z,99.90
2022-09-15T23:43:48.189Z,99.90
2022-09-15T23:48:45.020Z,99.90
2022-09-15T23:51:14.633Z,99.90
2022-09-15T23:58:39.698Z,99.90
